createdAt,value
2022-10-28T00:01:22.212Z,3.60
2022-10-28T00:03:54.190Z,3.90
2022-10-28T00:06:42.499Z,3.33
2022-10-28T00:09:12.200Z,3.90
2022-10-28T00:11:40.032Z,4.30
2022-10-28T00:14:07.694Z,3.72
2022-10-28T00:16:36.943Z,3.80
2022-10-28T00:19:05.224Z,3.70
2022-10-28T00:21:33.860Z,3.78
2022-10-28T00:24:01.615Z,3.67
2022-10-28T00:26:30.608Z,3.95
2022-10-28T00:29:08.202Z,3.65
2022-10-28T00:31:36.193Z,4.15
2022-10-28T00:34:05.223Z,4.20
2022-10-28T00:36:33.824Z,3.60
2022-10-28T00:39:01.636Z,4.25
2022-10-28T00:41:30.643Z,4.03
2022-10-28T00:43:59.402Z,4.20
2022-10-28T00:46:26.708Z,4.38
2022-10-28T00:49:00.328Z,4.82
2022-10-28T00:51:28.059Z,4.38
2022-10-28T00:53:56.202Z,4.90
2022-10-28T00:58:58.967Z,5.60
2022-10-28T01:01:26.483Z,5.07
2022-10-28T01:04:08.144Z,5.50
2022-10-28T01:06:35.395Z,4.63
2022-10-28T01:09:02.588Z,5.43
2022-10-28T01:11:36.044Z,4.85
2022-10-28T01:14:06.327Z,4.97
2022-10-28T01:16:41.835Z,5.20
2022-10-28T01:19:18.753Z,5.22
2022-10-28T01:21:52.064Z,4.82
2022-10-28T01:24:47.815Z,5.22
2022-10-28T01:27:21.111Z,5.45
2022-10-28T01:29:54.584Z,5.50
2022-10-28T01:32:30.568Z,5.00
2022-10-28T01:35:12.245Z,5.13
2022-10-28T01:37:50.065Z,4.53
2022-10-28T01:40:31.929Z,4.85
2022-10-28T01:43:09.854Z,4.80
2022-10-28T01:48:45.116Z,4.90
2022-10-28T01:51:17.371Z,4.35
2022-10-28T01:53:46.350Z,4.90
2022-10-28T01:56:16.421Z,4.80
2022-10-28T01:58:44.807Z,5.03
2022-10-28T02:01:12.959Z,5.00
2022-10-28T02:03:40.447Z,4.30
2022-10-28T02:06:15.690Z,4.85
2022-10-28T02:08:42.889Z,5.70
2022-10-28T02:11:18.712Z,5.30
2022-10-28T02:13:45.939Z,5.10
2022-10-28T02:16:18.894Z,5.47
2022-10-28T02:18:54.819Z,5.40
2022-10-28T02:21:37.731Z,5.60
2022-10-28T02:24:11.372Z,4.90
2022-10-28T02:26:42.559Z,4.50
2022-10-28T02:29:16.712Z,5.07
2022-10-28T02:31:51.018Z,5.38
2022-10-28T02:34:20.586Z,6.80
2022-10-28T02:36:50.719Z,5.35
2022-10-28T02:39:21.765Z,4.97
2022-10-28T02:41:48.986Z,4.88
2022-10-28T02:44:19.364Z,4.65
2022-10-28T02:46:47.679Z,5.18
2022-10-28T02:49:15.643Z,4.85
2022-10-28T02:51:45.227Z,4.95
2022-10-28T02:54:15.203Z,4.65
2022-10-28T02:56:49.164Z,4.32
2022-10-28T02:59:16.435Z,4.85
2022-10-28T03:01:44.095Z,4.57
2022-10-28T03:04:11.431Z,5.00
2022-10-28T03:06:38.668Z,5.00
2022-10-28T03:09:05.912Z,4.70
2022-10-28T03:11:33.253Z,4.57
2022-10-28T03:14:00.544Z,4.93
2022-10-28T03:16:27.780Z,4.97
2022-10-28T03:18:55.322Z,5.38
2022-10-28T03:21:22.572Z,4.70
2022-10-28T03:23:49.860Z,4.65
2022-10-28T03:26:17.082Z,5.30
2022-10-28T03:28:44.411Z,5.05
2022-10-28T03:31:11.646Z,5.13
2022-10-28T03:33:39.038Z,5.07
2022-10-28T03:36:06.449Z,4.75
2022-10-28T03:38:33.680Z,5.07
2022-10-28T03:41:00.843Z,5.07
2022-10-28T03:43:28.069Z,4.60
2022-10-28T03:45:55.243Z,4.53
2022-10-28T03:48:22.528Z,5.22
2022-10-28T03:50:53.154Z,5.13
2022-10-28T03:53:20.751Z,4.93
2022-10-28T03:55:58.509Z,4.53
2022-10-28T03:58:25.869Z,5.07
2022-10-28T04:00:53.755Z,5.18
2022-10-28T04:03:21.616Z,6.38
2022-10-28T04:05:49.268Z,4.95
2022-10-28T04:08:17.280Z,4.65
2022-10-28T04:10:47.279Z,5.07
2022-10-28T04:13:15.375Z,4.50
2022-10-28T04:15:42.663Z,5.38
2022-10-28T04:18:09.935Z,5.07
2022-10-28T04:20:37.145Z,4.30
2022-10-28T04:23:04.715Z,5.25
2022-10-28T04:25:32.037Z,5.30
2022-10-28T04:27:59.308Z,4.88
2022-10-28T04:30:26.716Z,5.80
2022-10-28T04:32:53.947Z,5.82
2022-10-28T04:35:21.231Z,6.13
2022-10-28T04:37:48.911Z,5.15
2022-10-28T04:40:16.188Z,6.20
2022-10-28T04:42:43.480Z,5.55
2022-10-28T04:45:10.892Z,4.93
2022-10-28T04:47:38.175Z,5.10
2022-10-28T04:50:05.636Z,5.88
2022-10-28T04:52:32.885Z,5.07
2022-10-28T04:55:00.138Z,5.57
2022-10-28T04:57:27.661Z,5.35
2022-10-28T04:59:54.898Z,5.35
2022-10-28T05:02:23.458Z,5.03
2022-10-28T05:04:50.832Z,5.63
2022-10-28T05:07:21.220Z,5.65
2022-10-28T05:09:50.722Z,5.35
2022-10-28T05:12:17.904Z,5.15
2022-10-28T05:14:45.106Z,4.97
2022-10-28T05:17:12.469Z,5.32
2022-10-28T05:19:40.011Z,5.43
2022-10-28T05:22:07.208Z,4.43
2022-10-28T05:24:34.438Z,5.10
2022-10-28T05:27:01.698Z,5.05
2022-10-28T05:29:33.172Z,4.57
2022-10-28T05:34:28.170Z,5.07
2022-10-28T05:36:55.377Z,4.72
2022-10-28T05:39:22.576Z,4.72
2022-10-28T05:41:49.838Z,4.65
2022-10-28T05:44:17.160Z,5.28
2022-10-28T05:46:44.441Z,5.18
2022-10-28T05:49:11.640Z,5.28
2022-10-28T05:51:38.928Z,4.85
2022-10-28T05:54:06.251Z,4.97
2022-10-28T05:56:33.521Z,4.50
2022-10-28T05:59:00.726Z,5.50
2022-10-28T06:01:28.012Z,5.53
2022-10-28T06:03:55.327Z,6.20
2022-10-28T06:06:22.875Z,5.80
2022-10-28T06:08:50.118Z,5.07
2022-10-28T06:11:16.001Z,5.32
2022-10-28T06:13:43.177Z,5.28
2022-10-28T06:16:10.560Z,5.05
2022-10-28T06:18:38.070Z,5.03
2022-10-28T06:21:05.357Z,4.93
2022-10-28T06:23:32.561Z,5.60
2022-10-28T06:26:03.705Z,5.38
2022-10-28T06:28:31.478Z,5.03
2022-10-28T06:31:03.002Z,5.20
2022-10-28T06:33:31.801Z,5.40
2022-10-28T06:35:59.314Z,5.47
2022-10-28T06:38:27.431Z,5.13
2022-10-28T06:40:57.455Z,5.03
2022-10-28T06:43:24.787Z,5.63
2022-10-28T06:45:56.566Z,5.70
2022-10-28T06:48:25.522Z,5.57
2022-10-28T06:50:55.871Z,6.30
2022-10-28T06:53:23.313Z,5.25
2022-10-28T06:55:54.506Z,5.25
2022-10-28T06:58:22.427Z,5.10
2022-10-28T07:00:49.699Z,5.72
2022-10-28T07:03:18.823Z,5.80
2022-10-28T07:05:47.043Z,5.85
2022-10-28T07:08:14.985Z,5.88
2022-10-28T07:10:42.340Z,5.88
2022-10-28T07:13:09.816Z,6.32
2022-10-28T07:15:37.161Z,6.72
2022-10-28T07:18:04.525Z,5.85
2022-10-28T07:20:32.949Z,6.10
2022-10-28T07:23:01.104Z,7.03
2022-10-28T07:25:31.864Z,6.28
2022-10-28T07:27:59.726Z,5.93
2022-10-28T07:30:28.059Z,8.90
2022-10-28T07:32:55.948Z,6.40
2022-10-28T07:35:23.803Z,7.40
2022-10-28T07:37:51.390Z,7.68
2022-10-28T07:40:19.371Z,6.65
2022-10-28T07:42:47.580Z,6.40
2022-10-28T07:45:15.694Z,8.02
2022-10-28T07:47:42.960Z,8.55
2022-10-28T07:50:10.265Z,9.45
2022-10-28T07:52:38.089Z,7.70
2022-10-28T07:55:05.908Z,7.00
2022-10-28T07:57:34.783Z,6.47
2022-10-28T08:00:02.621Z,7.00
2022-10-28T08:02:38.051Z,6.20
2022-10-28T08:05:05.583Z,7.15
2022-10-28T08:07:36.202Z,8.23
2022-10-28T08:10:06.114Z,8.00
2022-10-28T08:12:33.549Z,8.00
2022-10-28T08:15:02.554Z,6.70
2022-10-28T08:17:29.906Z,8.05
2022-10-28T08:19:57.496Z,7.35
2022-10-28T08:22:24.823Z,7.03
2022-10-28T08:24:52.127Z,7.45
2022-10-28T08:27:19.572Z,7.68
2022-10-28T08:29:46.835Z,7.13
2022-10-28T08:32:14.259Z,7.20
2022-10-28T08:34:43.795Z,6.97
2022-10-28T08:37:11.539Z,6.75
2022-10-28T08:39:38.872Z,7.15
2022-10-28T08:42:07.930Z,7.13
2022-10-28T08:44:47.672Z,6.47
2022-10-28T08:47:15.676Z,6.65
2022-10-28T08:49:47.138Z,6.95
2022-10-28T08:52:16.720Z,7.07
2022-10-28T08:54:50.382Z,6.97
2022-10-28T08:57:21.371Z,6.68
2022-10-28T08:59:51.999Z,6.68
2022-10-28T09:02:22.478Z,6.85
2022-10-28T09:04:54.074Z,7.30
2022-10-28T09:07:22.633Z,7.20
2022-10-28T09:09:51.364Z,7.22
2022-10-28T09:12:23.216Z,6.70
2022-10-28T09:15:07.778Z,7.60
2022-10-28T09:17:36.589Z,7.00
2022-10-28T09:20:14.490Z,6.90
2022-10-28T09:23:02.194Z,6.32
2022-10-28T09:25:48.773Z,6.53
2022-10-28T09:28:25.751Z,6.60
2022-10-28T09:30:57.274Z,6.90
2022-10-28T09:33:38.368Z,6.60
2022-10-28T09:36:06.858Z,6.90
2022-10-28T09:38:35.824Z,7.47
2022-10-28T09:41:06.960Z,6.55
2022-10-28T09:43:35.315Z,6.90
2022-10-28T09:46:04.544Z,6.97
2022-10-28T09:48:32.987Z,11.23
2022-10-28T09:51:00.553Z,7.63
2022-10-28T09:53:37.156Z,7.93
2022-10-28T09:56:06.353Z,7.07
2022-10-28T09:58:34.608Z,6.38
2022-10-28T10:01:03.256Z,6.97
2022-10-28T10:03:30.533Z,6.57
2022-10-28T10:05:59.304Z,6.22
2022-10-28T10:08:26.821Z,6.65
2022-10-28T10:11:06.321Z,6.78
2022-10-28T10:13:35.805Z,6.13
2022-10-28T10:16:12.380Z,5.72
2022-10-28T10:18:46.942Z,6.55
2022-10-28T10:21:17.182Z,7.00
2022-10-28T10:23:44.571Z,6.00
2022-10-28T10:26:12.635Z,6.43
2022-10-28T10:28:47.352Z,7.28
2022-10-28T10:31:21.749Z,7.03
2022-10-28T10:33:53.494Z,6.80
2022-10-28T10:36:23.504Z,6.82
2022-10-28T10:38:59.152Z,6.15
2022-10-28T10:41:36.749Z,6.97
2022-10-28T10:44:24.024Z,6.60
2022-10-28T10:47:05.005Z,6.85
2022-10-28T10:49:35.135Z,6.80
2022-10-28T10:52:03.814Z,6.47
2022-10-28T10:54:32.729Z,6.63
2022-10-28T10:57:20.101Z,7.80
2022-10-28T10:59:48.461Z,6.60
2022-10-28T11:02:36.949Z,6.97
2022-10-28T11:05:07.169Z,6.20
2022-10-28T11:07:34.556Z,6.20
2022-10-28T11:10:02.290Z,5.55
2022-10-28T11:12:31.979Z,6.70
2022-10-28T11:15:17.383Z,6.63
2022-10-28T11:17:55.435Z,6.53
2022-10-28T11:20:30.039Z,6.18
2022-10-28T11:22:57.464Z,7.55
2022-10-28T11:25:30.714Z,6.97
2022-10-28T11:28:04.505Z,6.53
2022-10-28T11:30:44.677Z,6.72
2022-10-28T11:33:30.028Z,7.70
2022-10-28T11:36:01.058Z,7.07
2022-10-28T11:38:38.416Z,7.18
2022-10-28T11:41:13.286Z,6.80
2022-10-28T11:43:55.049Z,7.50
2022-10-28T11:46:34.165Z,7.85
2022-10-28T11:49:20.124Z,8.18
2022-10-28T11:51:58.501Z,7.82
2022-10-28T11:54:43.169Z,9.02
2022-10-28T11:57:13.343Z,8.65
2022-10-28T11:59:53.740Z,10.27
2022-10-28T12:02:21.129Z,9.50
2022-10-28T12:05:01.065Z,9.10
2022-10-28T12:07:47.364Z,9.45
2022-10-28T12:10:21.403Z,9.90
2022-10-28T12:13:00.212Z,9.27
2022-10-28T12:15:27.639Z,10.07
2022-10-28T12:18:00.666Z,9.60
2022-10-28T12:20:31.492Z,8.57
2022-10-28T12:23:00.838Z,8.73
2022-10-28T12:25:29.630Z,8.60
2022-10-28T12:27:59.141Z,9.27
2022-10-28T12:30:33.801Z,9.43
2022-10-28T12:33:05.580Z,9.38
2022-10-28T12:38:12.075Z,8.18
2022-10-28T12:40:46.699Z,9.07
2022-10-28T12:43:24.166Z,8.88
2022-10-28T12:45:53.524Z,8.48
2022-10-28T12:48:24.755Z,12.13
2022-10-28T12:50:57.636Z,9.27
2022-10-28T12:53:27.943Z,9.10
2022-10-28T12:56:00.462Z,8.95
2022-10-28T12:58:30.935Z,9.32
2022-10-28T13:01:01.633Z,8.23
2022-10-28T13:03:29.038Z,8.90
2022-10-28T13:05:56.305Z,8.48
2022-10-28T13:08:29.808Z,8.57
2022-10-28T13:11:15.998Z,7.97
2022-10-28T13:13:50.319Z,8.65
2022-10-28T13:16:36.426Z,10.30
2022-10-28T13:19:22.734Z,10.27
2022-10-28T13:21:55.802Z,9.05
2022-10-28T13:24:37.471Z,8.75
2022-10-28T13:27:05.820Z,8.77
2022-10-28T13:29:35.145Z,9.68
2022-10-28T13:32:02.692Z,8.90
2022-10-28T13:34:32.623Z,9.40
2022-10-28T13:37:03.327Z,9.02
2022-10-28T13:39:33.488Z,8.93
2022-10-28T13:42:23.175Z,8.82
2022-10-28T13:44:58.737Z,9.10
2022-10-28T13:47:30.912Z,8.98
2022-10-28T13:50:07.745Z,9.30
2022-10-28T13:52:35.729Z,9.52
2022-10-28T13:55:15.179Z,9.98
2022-10-28T13:57:47.606Z,8.95
2022-10-28T14:00:18.031Z,9.20
2022-10-28T14:03:01.198Z,9.45
2022-10-28T14:05:34.961Z,9.90
2022-10-28T14:08:26.956Z,8.82
2022-10-28T14:13:24.985Z,8.73
2022-10-28T14:16:14.385Z,9.63
2022-10-28T14:18:44.849Z,9.38
2022-10-28T14:21:12.720Z,9.93
2022-10-28T14:23:43.219Z,10.18
2022-10-28T14:26:10.753Z,9.80
2022-10-28T14:28:38.018Z,8.95
2022-10-28T14:31:11.450Z,9.13
2022-10-28T14:33:38.841Z,8.68
2022-10-28T14:36:21.305Z,8.40
2022-10-28T14:38:52.205Z,8.45
2022-10-28T14:41:19.558Z,8.73
2022-10-28T14:44:06.642Z,8.90
2022-10-28T14:46:53.947Z,8.18
2022-10-28T14:49:29.199Z,8.40
2022-10-28T14:52:00.301Z,7.90
2022-10-28T14:54:40.567Z,8.45
2022-10-28T14:57:08.856Z,8.55
2022-10-28T14:59:42.836Z,9.00
2022-10-28T15:02:21.669Z,8.73
2022-10-28T15:05:23.196Z,8.05
2022-10-28T15:07:56.684Z,7.65
2022-10-28T15:10:28.726Z,7.80
2022-10-28T15:15:25.385Z,8.70
2022-10-28T15:17:54.405Z,8.40
2022-10-28T15:20:24.048Z,7.90
2022-10-28T15:22:52.114Z,8.27
2022-10-28T15:25:20.825Z,8.13
2022-10-28T15:27:52.199Z,7.47
2022-10-28T15:30:24.325Z,7.68
2022-10-28T15:35:32.765Z,7.32
2022-10-28T15:38:01.439Z,7.03
2022-10-28T15:40:28.695Z,7.78
2022-10-28T15:43:02.150Z,7.35
2022-10-28T15:45:30.521Z,7.22
2022-10-28T15:47:59.025Z,7.50
2022-10-28T15:50:33.645Z,8.15
2022-10-28T15:53:13.200Z,8.27
2022-10-28T15:58:33.834Z,7.72
2022-10-28T16:01:01.175Z,7.50
2022-10-28T16:06:01.860Z,11.15
2022-10-28T16:08:33.503Z,14.05
2022-10-28T16:11:05.082Z,12.27
2022-10-28T16:13:36.911Z,13.02
2022-10-28T16:16:06.613Z,10.93
2022-10-28T16:18:39.797Z,10.57
2022-10-28T16:21:07.866Z,9.50
2022-10-28T16:23:39.375Z,9.45
2022-10-28T16:26:06.853Z,9.13
2022-10-28T16:28:34.197Z,10.95
2022-10-28T16:31:02.589Z,11.90
2022-10-28T16:33:32.057Z,12.23
2022-10-28T16:35:59.802Z,11.57
2022-10-28T16:38:28.126Z,10.57
2022-10-28T16:40:55.575Z,9.52
2022-10-28T16:43:24.418Z,10.05
2022-10-28T16:45:52.770Z,8.68
2022-10-28T16:48:21.100Z,8.43
2022-10-28T16:50:52.901Z,8.00
2022-10-28T16:55:47.853Z,25.90
2022-10-28T16:58:15.682Z,24.48
2022-10-28T17:00:43.591Z,24.05
2022-10-28T17:03:14.088Z,27.13
2022-10-28T17:05:41.718Z,22.75
2022-10-28T17:08:10.066Z,20.55
2022-10-28T17:10:39.752Z,15.43
2022-10-28T17:13:08.741Z,13.10
2022-10-28T17:15:36.386Z,12.52
2022-10-28T17:18:03.759Z,11.05
2022-10-28T17:20:31.172Z,9.70
2022-10-28T17:22:58.527Z,9.77
2022-10-28T17:25:26.374Z,9.82
2022-10-28T17:27:54.687Z,11.13
2022-10-28T17:30:22.738Z,13.43
2022-10-28T17:32:51.741Z,13.25
2022-10-28T17:35:19.828Z,13.30
2022-10-28T17:37:47.345Z,14.40
2022-10-28T17:40:15.227Z,15.82
2022-10-28T17:42:42.522Z,13.55
2022-10-28T17:45:10.807Z,13.98
2022-10-28T17:47:38.250Z,13.50
2022-10-28T17:50:05.964Z,13.02
2022-10-28T17:52:37.409Z,13.63
2022-10-28T17:55:06.013Z,15.63
2022-10-28T17:57:33.301Z,12.93
2022-10-28T18:00:00.706Z,12.60
2022-10-28T18:02:28.178Z,13.70
2022-10-28T18:04:55.681Z,13.55
2022-10-28T18:07:24.219Z,12.95
2022-10-28T18:09:51.530Z,12.88
2022-10-28T18:12:18.852Z,15.02
2022-10-28T18:14:46.154Z,15.27
2022-10-28T18:17:14.660Z,14.75
2022-10-28T18:19:42.023Z,20.58
2022-10-28T18:22:09.456Z,16.35
2022-10-28T18:24:36.819Z,13.20
2022-10-28T18:27:04.123Z,10.80
2022-10-28T18:29:31.497Z,10.70
2022-10-28T18:32:00.627Z,9.43
2022-10-28T18:34:28.014Z,8.73
2022-10-28T18:36:55.408Z,9.68
2022-10-28T18:39:22.772Z,9.48
2022-10-28T18:41:51.225Z,8.25
2022-10-28T18:44:21.549Z,8.40
2022-10-28T18:46:51.247Z,8.45
2022-10-28T18:49:18.585Z,7.90
2022-10-28T18:51:45.981Z,8.52
2022-10-28T18:54:13.347Z,8.00
2022-10-28T18:56:44.755Z,7.93
2022-10-28T18:59:15.183Z,7.93
2022-10-28T19:01:46.701Z,8.07
2022-10-28T19:04:15.141Z,8.32
2022-10-28T19:06:42.661Z,7.85
2022-10-28T19:09:11.808Z,7.93
2022-10-28T19:11:40.383Z,8.80
2022-10-28T19:14:08.425Z,8.38
2022-10-28T19:16:36.045Z,8.55
2022-10-28T19:19:04.637Z,9.40
2022-10-28T19:21:33.429Z,7.30
2022-10-28T19:24:01.664Z,9.25
2022-10-28T19:26:30.294Z,9.52
2022-10-28T19:28:57.612Z,9.00
2022-10-28T19:31:26.190Z,9.35
2022-10-28T19:33:54.339Z,9.20
2022-10-28T19:36:22.879Z,8.38
2022-10-28T19:38:50.701Z,8.73
2022-10-28T19:41:19.038Z,9.00
2022-10-28T19:43:46.757Z,7.97
2022-10-28T19:46:17.606Z,7.97
2022-10-28T19:48:48.942Z,7.97
2022-10-28T19:51:17.325Z,8.70
2022-10-28T19:53:51.277Z,9.68
2022-10-28T19:56:19.761Z,8.63
2022-10-28T19:58:49.531Z,9.15
2022-10-28T20:01:17.574Z,9.88
2022-10-28T20:03:49.047Z,8.90
2022-10-28T20:06:17.224Z,8.88
2022-10-28T20:08:46.281Z,8.60
2022-10-28T20:11:20.106Z,8.18
2022-10-28T20:16:23.553Z,7.85
2022-10-28T20:18:51.080Z,8.18
2022-10-28T20:21:22.297Z,7.60
2022-10-28T20:24:15.602Z,7.82
2022-10-28T20:26:43.242Z,7.68
2022-10-28T20:29:10.537Z,7.60
2022-10-28T20:31:41.417Z,7.72
2022-10-28T20:34:08.905Z,8.40
2022-10-28T20:36:37.986Z,8.27
2022-10-28T20:39:08.883Z,8.48
2022-10-28T20:41:37.303Z,7.65
2022-10-28T20:44:05.147Z,7.90
2022-10-28T20:46:32.853Z,7.43
2022-10-28T20:49:00.833Z,7.63
2022-10-28T20:51:29.488Z,7.38
2022-10-28T20:53:56.939Z,6.70
2022-10-28T20:56:25.168Z,7.32
2022-10-28T20:58:53.056Z,6.32
2022-10-28T21:01:21.821Z,7.50
2022-10-28T21:03:49.778Z,7.95
2022-10-28T21:06:17.769Z,7.15
2022-10-28T21:08:45.112Z,7.32
2022-10-28T21:11:13.512Z,7.00
2022-10-28T21:13:41.002Z,7.13
2022-10-28T21:16:09.500Z,6.72
2022-10-28T21:18:37.712Z,7.82
2022-10-28T21:21:05.730Z,7.82
2022-10-28T21:23:33.069Z,8.48
2022-10-28T21:26:02.046Z,10.05
2022-10-28T21:28:30.159Z,8.40
2022-10-28T21:31:08.358Z,7.45
2022-10-28T21:33:36.855Z,6.72
2022-10-28T21:36:05.952Z,7.13
2022-10-28T21:38:33.305Z,6.50
2022-10-28T21:41:08.703Z,6.82
2022-10-28T21:43:37.210Z,6.40
2022-10-28T21:46:04.771Z,6.13
2022-10-28T21:48:32.922Z,6.15
2022-10-28T21:51:01.607Z,6.47
2022-10-28T21:53:31.820Z,5.85
2022-10-28T21:56:03.288Z,5.57
2022-10-28T21:58:30.852Z,5.75
2022-10-28T22:01:05.880Z,5.80
2022-10-28T22:03:33.234Z,5.43
2022-10-28T22:06:01.087Z,6.32
2022-10-28T22:08:29.003Z,5.28
2022-10-28T22:11:04.199Z,5.50
2022-10-28T22:13:31.777Z,5.60
2022-10-28T22:16:03.675Z,5.40
2022-10-28T22:20:58.311Z,5.07
2022-10-28T22:23:25.655Z,5.45
2022-10-28T22:25:52.882Z,5.05
2022-10-28T22:28:20.279Z,5.30
2022-10-28T22:30:47.629Z,5.35
2022-10-28T22:33:14.931Z,5.18
2022-10-28T22:35:42.255Z,5.00
2022-10-28T22:38:09.656Z,5.85
2022-10-28T22:40:36.985Z,5.28
2022-10-28T22:43:04.404Z,5.13
2022-10-28T22:45:32.159Z,4.95
2022-10-28T22:47:59.555Z,5.65
2022-10-28T22:50:26.905Z,7.28
2022-10-28T22:52:54.260Z,7.10
2022-10-28T22:55:21.594Z,6.30
2022-10-28T22:57:49.251Z,6.35
2022-10-28T23:00:16.748Z,6.85
2022-10-28T23:02:44.136Z,7.63
2022-10-28T23:05:11.898Z,7.32
2022-10-28T23:07:39.198Z,8.50
2022-10-28T23:10:06.633Z,7.13
2022-10-28T23:12:34.071Z,6.68
2022-10-28T23:15:01.347Z,7.38
2022-10-28T23:17:28.654Z,6.63
2022-10-28T23:19:56.220Z,7.32
2022-10-28T23:22:23.739Z,6.60
2022-10-28T23:24:51.048Z,7.53
2022-10-28T23:27:18.535Z,6.22
2022-10-28T23:29:45.788Z,5.70
2022-10-28T23:32:13.251Z,5.97
2022-10-28T23:34:40.593Z,6.05
2022-10-28T23:37:07.882Z,6.68
2022-10-28T23:39:35.180Z,6.00
2022-10-28T23:42:02.527Z,5.72
2022-10-28T23:44:29.807Z,5.82
2022-10-28T23:46:57.097Z,5.88
2022-10-28T23:49:24.422Z,6.40
2022-10-28T23:51:51.824Z,5.93
2022-10-28T23:54:19.173Z,6.38
2022-10-28T23:56:46.575Z,5.07
2022-10-28T23:59:14.714Z,5.88
